Flight Track Log - Related Links

Times and Time Zones

All times are in EDT time to prevent confusion due to time zone crossing. See the AWI4029 flight status page for this flight to view local times or setup timezone preferences in your user account.

Time Position Orientation Groundspeed Altitude Reporting Facility
EDT Latitude Longitude Course Direction KTS MPH feet Rate Location/Type
Thu 05:37:03 AM 42.7778 -73.8092 223° Southwest 155 178 1,700  Level Boston Center
Thu 05:37:50 AM 42.8067 -73.8297 332° Northwest 176 203 2,700 1,773 Climbing Boston Center
Thu 05:39:00 AM 42.7334 -74.1884 270° West  Level FlightAware Approximate
Thu 05:39:15 AM 42.7950 -73.9311 261° West 202 232 5,600  Level Boston Center
Thu 05:40:00 AM 42.7259 -74.3148 236° Southwest  Level FlightAware Approximate
Thu 05:40:16 AM 42.7853 -74.0244 262° West 226 260 7,700  Level Boston Center
Thu 05:41:00 AM 42.6561 -74.4016 220° Southwest  Level FlightAware Approximate
Thu 05:41:15 AM 42.7714 -74.1258 259° West 254 292 9,800  Level Boston Center
Thu 05:42:00 AM 42.5829 -74.4839 223° Southwest  Level FlightAware Approximate
Thu 05:42:17 AM 42.7575 -74.2189 259° West 273 314 11,700  Level Boston Center
Thu 05:43:15 AM 42.7019 -74.3075 230° Southwest 278 320 14,000 2,034 Climbing Boston Center
Thu 05:44:15 AM 42.6486 -74.3736 222° Southwest 288 331 15,700 992 Climbing Boston Center
Thu 05:45:16 AM 42.5783 -74.4617 223° Southwest 311 358 16,000 150 Climbing Boston Center
Thu 05:46:15 AM 42.5208 -74.5358 224° Southwest 321 369 16,000  Level Boston Center
Thu 05:47:15 AM 42.4439 -74.6292 222° Southwest 326 375 16,000  Level Boston Center
Thu 05:48:14 AM 42.3842 -74.7056 223° Southwest 331 381 16,000 -50 Level Boston Center
Thu 05:49:16 AM 42.3092 -74.8039 224° Southwest 331 381 15,900 -49 Descending Boston Center
Thu 05:50:17 AM 42.2428 -74.8856 222° Southwest 331 381 15,900 38 Level Boston Center
Thu 05:51:54 AM 42.1269 -74.9989 216° Southwest 334 384 16,000 38 Climbing New York Center
Thu 05:52:54 AM 42.0497 -75.0664 213° Southwest 341 392 16,000  Level New York Center
Thu 05:53:55 AM 41.9703 -75.1308 211° Southwest 341 392 16,000  Level New York Center
Thu 05:54:55 AM 41.8822 -75.2031 211° Southwest 346 398 16,000  Level New York Center
Thu 05:55:56 AM 41.8006 -75.2700 211° Southwest 346 398 16,000  Level New York Center
Thu 05:56:54 AM 41.7211 -75.3342 211° Southwest 346 398 16,000 -50 Level New York Center
Thu 05:57:55 AM 41.6503 -75.3903 211° Southwest 346 398 15,900 -800 Descending New York Center
Thu 05:58:54 AM 41.5622 -75.4619 211° Southwest 346 398 14,400 -1,636 Descending New York Center
Thu 05:59:56 AM 41.4847 -75.5231 211° Southwest 341 392 12,600 -1,200 Descending New York Center
Thu 06:00:54 AM 41.4094 -75.5839 211° Southwest 334 384 12,000 -300 Descending New York Center
Thu 06:01:56 AM 41.3319 -75.6447 211° Southwest 329 379 12,000  Level New York Center
Thu 06:02:56 AM 41.2594 -75.6864 203° Southwest 323 372 12,000  Level New York Center
Thu 06:03:53 AM 41.1664 -75.6686 172° South 318 366 12,000  Level New York Center
Thu 06:04:53 AM 41.0656 -75.6367 167° South 343 395 12,000  Level New York Center
Thu 06:05:54 AM 40.9689 -75.6050 166° South 356 410 12,000  Level New York Center
Thu 06:06:54 AM 40.8825 -75.5769 166° South 356 410 12,000  Level New York Center
Thu 06:07:55 AM 40.7839 -75.5425 165° South 356 410 12,000 -50 Level New York Center
Thu 06:08:55 AM 40.6769 -75.5078 166° South 356 410 11,900 -508 Descending New York Center
Thu 06:09:53 AM 40.5825 -75.4767 166° South 356 410 11,000 -958 Descending New York Center
Thu 06:10:54 AM 40.4928 -75.4242 156° South 356 410 10,000 -496 Descending New York Center
Thu 06:11:54 AM 40.3969 -75.3686 156° South 371 427 10,000  Level New York Center
Thu 06:12:56 AM 40.3056 -75.3108 154° Southeast 366 421 10,000 -350 Level New York Center
Thu 06:13:54 AM 40.2281 -75.2647 156° South 334 384 9,300 -1,017 Descending New York Center
Thu 06:14:54 AM 40.1506 -75.2217 157° South 313 360 8,000 -1,333 Descending New York Center
Thu 06:15:51 AM 40.0833 -75.1833 156° South 286 329 6,700 -1,373 Descending Philadelphia TRACON
Thu 06:16:52 AM 40.0000 -75.1667 171° South 282 325 5,300 -1,289 Descending Philadelphia TRACON
Thu 06:17:52 AM 39.9333 -75.1333 159° South 265 305 4,100 -750 Descending Philadelphia TRACON
Thu 06:18:52 AM 39.8667 -75.1167 169° South 195 224 3,800 -684 Descending Philadelphia TRACON
Thu 06:19:46 AM 39.8167 -75.1167 180° South 199 229 2,800 -1,100 Descending Philadelphia TRACON
Thu 06:20:52 AM 39.7833 -75.1500 218° Southwest 182 209 1,600 -619 Descending Philadelphia TRACON
Thu 06:21:52 AM 39.8000 -75.2000 293° West 138 159 1,500 -350 Descending Philadelphia TRACON
Thu 06:22:52 AM 39.8333 -75.2167 339° North 127 146 900 -650 Descending Philadelphia TRACON
Thu 06:23:52 AM 39.8667 -75.2333 339° North 129 148 200 -700 Descending Philadelphia TRACON

Login

Don't have an account? Register now (free) for customized features, flight alerts, and more!